sensor_id;sensor_type;location;lat;lon;timestamp;temperature;humidity
21627;DHT22;10975;47.872;12.972;2023-03-01T00:01:46;1.40;99.90
21627;DHT22;10975;47.872;12.972;2023-03-01T00:04:13;1.40;99.90
21627;DHT22;10975;47.872;12.972;2023-03-01T00:06:39;1.30;99.90
21627;DHT22;10975;47.872;12.972;2023-03-01T00:09:06;1.30;99.90
21627;DHT22;10975;47.872;12.972;2023-03-01T00:11:33;1.20;99.90
21627;DHT22;10975;47.872;12.972;2023-03-01T00:14:00;1.20;99.90
21627;DHT22;10975;47.872;12.972;2023-03-01T00:16:29;1.10;99.90
21627;DHT22;10975;47.872;12.972;2023-03-01T00:18:56;1.10;99.90
21627;DHT22;10975;47.872;12.972;2023-03-01T00:21:23;1.00;99.90
21627;DHT22;10975;47.872;12.972;2023-03-01T00:23:50;1.00;99.90
21627;DHT22;10975;47.872;12.972;2023-03-01T00:26:18;0.90;99.90
21627;DHT22;10975;47.872;12.972;2023-03-01T00:28:45;0.80;99.90
21627;DHT22;10975;47.872;12.972;2023-03-01T00:33:43;0.70;99.90
21627;DHT22;10975;47.872;12.972;2023-03-01T00:36:10;0.70;99.90
21627;DHT22;10975;47.872;12.972;2023-03-01T00:38:39;0.70;99.90
21627;DHT22;10975;47.872;12.972;2023-03-01T00:41:07;0.60;99.90
21627;DHT22;10975;47.872;12.972;2023-03-01T00:43:34;0.60;99.90
21627;DHT22;10975;47.872;12.972;2023-03-01T00:46:04;0.60;99.90
21627;DHT22;10975;47.872;12.972;2023-03-01T00:48:31;0.50;99.90
21627;DHT22;10975;47.872;12.972;2023-03-01T00:51:03;0.50;99.90
21627;DHT22;10975;47.872;12.972;2023-03-01T00:53:30;0.40;99.90
21627;DHT22;10975;47.872;12.972;2023-03-01T00:55:57;0.40;99.90
21627;DHT22;10975;47.872;12.972;2023-03-01T00:58:25;0.40;99.90
21627;DHT22;10975;47.872;12.972;2023-03-01T01:00:52;0.30;99.90
21627;DHT22;10975;47.872;12.972;2023-03-01T01:03:19;0.20;99.90
21627;DHT22;10975;47.872;12.972;2023-03-01T01:05:46;0.20;99.90
21627;DHT22;10975;47.872;12.972;2023-03-01T01:08:12;0.20;99.90
21627;DHT22;10975;47.872;12.972;2023-03-01T01:10:39;0.10;99.90
21627;DHT22;10975;47.872;12.972;2023-03-01T01:13:06;0.10;99.90
21627;DHT22;10975;47.872;12.972;2023-03-01T01:15:33;0.10;99.90
21627;DHT22;10975;47.872;12.972;2023-03-01T01:18:00;0.10;99.90
21627;DHT22;10975;47.872;12.972;2023-03-01T01:20:27;0.00;99.90
21627;DHT22;10975;47.872;12.972;2023-03-01T01:22:53;0.10;99.90
21627;DHT22;10975;47.872;12.972;2023-03-01T01:25:20;0.10;99.90
21627;DHT22;10975;47.872;12.972;2023-03-01T01:27:47;0.10;99.90
21627;DHT22;10975;47.872;12.972;2023-03-01T01:30:13;0.10;99.90
21627;DHT22;10975;47.872;12.972;2023-03-01T01:32:40;0.10;99.90
21627;DHT22;10975;47.872;12.972;2023-03-01T01:35:07;0.10;99.90
21627;DHT22;10975;47.872;12.972;2023-03-01T01:37:33;0.10;99.90
21627;DHT22;10975;47.872;12.972;2023-03-01T01:40:00;0.10;99.90
21627;DHT22;10975;47.872;12.972;2023-03-01T01:42:30;0.10;99.90
21627;DHT22;10975;47.872;12.972;2023-03-01T01:47:42;0.00;99.90
21627;DHT22;10975;47.872;12.972;2023-03-01T01:50:09;0.10;99.90
21627;DHT22;10975;47.872;12.972;2023-03-01T01:52:40;0.10;99.90
21627;DHT22;10975;47.872;12.972;2023-03-01T01:55:11;0.10;99.90
21627;DHT22;10975;47.872;12.972;2023-03-01T01:57:48;0.00;99.90
21627;DHT22;10975;47.872;12.972;2023-03-01T02:00:18;0.00;99.90
21627;DHT22;10975;47.872;12.972;2023-03-01T02:02:45;0.00;99.90
21627;DHT22;10975;47.872;12.972;2023-03-01T02:05:29;-0.10;99.90
21627;DHT22;10975;47.872;12.972;2023-03-01T02:07:59;-0.10;99.90
21627;DHT22;10975;47.872;12.972;2023-03-01T02:10:26;-0.20;99.90
21627;DHT22;10975;47.872;12.972;2023-03-01T02:12:53;-0.20;99.90
21627;DHT22;10975;47.872;12.972;2023-03-01T02:15:20;-0.20;99.90
21627;DHT22;10975;47.872;12.972;2023-03-01T02:17:47;-0.30;99.90
21627;DHT22;10975;47.872;12.972;2023-03-01T02:20:16;-0.30;99.90
21627;DHT22;10975;47.872;12.972;2023-03-01T02:22:48;-0.30;99.90
21627;DHT22;10975;47.872;12.972;2023-03-01T02:30:42;-0.40;99.90
21627;DHT22;10975;47.872;12.972;2023-03-01T02:33:30;-0.40;99.90
21627;DHT22;10975;47.872;12.972;2023-03-01T02:36:10;-0.50;99.90
21627;DHT22;10975;47.872;12.972;2023-03-01T02:38:42;-0.50;99.90
21627;DHT22;10975;47.872;12.972;2023-03-01T02:41:10;-0.60;99.90
21627;DHT22;10975;47.872;12.972;2023-03-01T02:43:38;-0.60;99.90
21627;DHT22;10975;47.872;12.972;2023-03-01T02:46:06;-0.60;99.90
21627;DHT22;10975;47.872;12.972;2023-03-01T02:48:44;-0.60;99.90
21627;DHT22;10975;47.872;12.972;2023-03-01T02:51:17;-0.60;99.90
21627;DHT22;10975;47.872;12.972;2023-03-01T02:53:48;-0.70;99.90
21627;DHT22;10975;47.872;12.972;2023-03-01T02:56:19;-0.70;99.90
21627;DHT22;10975;47.872;12.972;2023-03-01T02:58:46;-0.70;99.90
21627;DHT22;10975;47.872;12.972;2023-03-01T03:01:20;-0.70;99.90
21627;DHT22;10975;47.872;12.972;2023-03-01T03:03:47;-0.80;99.90
21627;DHT22;10975;47.872;12.972;2023-03-01T03:06:14;-0.80;99.90
21627;DHT22;10975;47.872;12.972;2023-03-01T03:08:40;-0.80;99.90
21627;DHT22;10975;47.872;12.972;2023-03-01T03:11:07;-0.80;99.90
21627;DHT22;10975;47.872;12.972;2023-03-01T03:13:34;-0.80;99.90
21627;DHT22;10975;47.872;12.972;2023-03-01T03:16:01;-0.80;99.90
21627;DHT22;10975;47.872;12.972;2023-03-01T03:18:28;-0.80;99.90
21627;DHT22;10975;47.872;12.972;2023-03-01T03:20:55;-0.80;99.90
21627;DHT22;10975;47.872;12.972;2023-03-01T03:23:22;-0.70;99.90
21627;DHT22;10975;47.872;12.972;2023-03-01T03:25:49;-0.70;99.90
21627;DHT22;10975;47.872;12.972;2023-03-01T03:28:16;-0.60;99.90
21627;DHT22;10975;47.872;12.972;2023-03-01T03:30:44;-0.60;99.90
21627;DHT22;10975;47.872;12.972;2023-03-01T03:33:11;-0.50;99.90
21627;DHT22;10975;47.872;12.972;2023-03-01T03:35:43;-0.50;99.90
21627;DHT22;10975;47.872;12.972;2023-03-01T03:38:11;-0.50;99.90
21627;DHT22;10975;47.872;12.972;2023-03-01T03:43:18;-0.40;99.90
21627;DHT22;10975;47.872;12.972;2023-03-01T03:45:45;-0.40;99.90
21627;DHT22;10975;47.872;12.972;2023-03-01T03:48:12;-0.40;99.90
21627;DHT22;10975;47.872;12.972;2023-03-01T03:50:39;-0.40;99.90
21627;DHT22;10975;47.872;12.972;2023-03-01T03:53:07;-0.30;99.90
21627;DHT22;10975;47.872;12.972;2023-03-01T03:55:34;-0.30;99.90
21627;DHT22;10975;47.872;12.972;2023-03-01T03:58:02;-0.30;99.90
21627;DHT22;10975;47.872;12.972;2023-03-01T04:00:37;-0.30;99.90
21627;DHT22;10975;47.872;12.972;2023-03-01T04:03:04;-0.30;99.90
21627;DHT22;10975;47.872;12.972;2023-03-01T04:05:31;-0.30;99.90
21627;DHT22;10975;47.872;12.972;2023-03-01T04:07:58;-0.30;99.90
21627;DHT22;10975;47.872;12.972;2023-03-01T04:10:32;-0.30;99.90
21627;DHT22;10975;47.872;12.972;2023-03-01T04:12:59;-0.30;99.90
21627;DHT22;10975;47.872;12.972;2023-03-01T04:15:26;-0.30;99.90
21627;DHT22;10975;47.872;12.972;2023-03-01T04:17:53;-0.30;99.90
21627;DHT22;10975;47.872;12.972;2023-03-01T04:20:21;-0.30;99.90
21627;DHT22;10975;47.872;12.972;2023-03-01T04:22:52;-0.20;99.90
21627;DHT22;10975;47.872;12.972;2023-03-01T04:25:19;-0.20;99.90
21627;DHT22;10975;47.872;12.972;2023-03-01T04:27:46;-0.20;99.90
21627;DHT22;10975;47.872;12.972;2023-03-01T04:30:12;-0.20;99.90
21627;DHT22;10975;47.872;12.972;2023-03-01T04:32:39;-0.20;99.90
21627;DHT22;10975;47.872;12.972;2023-03-01T04:35:06;-0.20;99.90
21627;DHT22;10975;47.872;12.972;2023-03-01T04:37:33;-0.20;99.90
21627;DHT22;10975;47.872;12.972;2023-03-01T04:40:01;-0.20;99.90
21627;DHT22;10975;47.872;12.972;2023-03-01T04:42:38;-0.30;99.90
21627;DHT22;10975;47.872;12.972;2023-03-01T04:45:05;-0.30;99.90
21627;DHT22;10975;47.872;12.972;2023-03-01T04:47:43;-0.30;99.90
21627;DHT22;10975;47.872;12.972;2023-03-01T04:50:10;-0.30;99.90
21627;DHT22;10975;47.872;12.972;2023-03-01T04:52:37;-0.30;99.90
21627;DHT22;10975;47.872;12.972;2023-03-01T04:55:05;-0.20;99.90
21627;DHT22;10975;47.872;12.972;2023-03-01T04:57:32;-0.30;99.90
21627;DHT22;10975;47.872;12.972;2023-03-01T04:59:58;-0.20;99.90
21627;DHT22;10975;47.872;12.972;2023-03-01T05:02:25;-0.20;99.90
21627;DHT22;10975;47.872;12.972;2023-03-01T05:04:52;-0.30;99.90
21627;DHT22;10975;47.872;12.972;2023-03-01T05:07:18;-0.20;99.90
21627;DHT22;10975;47.872;12.972;2023-03-01T05:09:46;-0.20;99.90
21627;DHT22;10975;47.872;12.972;2023-03-01T05:12:13;-0.20;99.90
21627;DHT22;10975;47.872;12.972;2023-03-01T05:14:40;-0.20;99.90
21627;DHT22;10975;47.872;12.972;2023-03-01T05:17:07;-0.20;99.90
21627;DHT22;10975;47.872;12.972;2023-03-01T05:19:34;-0.20;99.90
21627;DHT22;10975;47.872;12.972;2023-03-01T05:22:01;-0.20;99.90
21627;DHT22;10975;47.872;12.972;2023-03-01T05:24:31;-0.20;99.90
21627;DHT22;10975;47.872;12.972;2023-03-01T05:26:58;-0.20;99.90
21627;DHT22;10975;47.872;12.972;2023-03-01T05:29:25;-0.20;99.90
21627;DHT22;10975;47.872;12.972;2023-03-01T05:31:53;-0.20;99.90
21627;DHT22;10975;47.872;12.972;2023-03-01T05:34:27;-0.20;99.90
21627;DHT22;10975;47.872;12.972;2023-03-01T05:36:54;-0.20;99.90
21627;DHT22;10975;47.872;12.972;2023-03-01T05:39:21;-0.20;99.90
21627;DHT22;10975;47.872;12.972;2023-03-01T05:41:51;-0.20;99.90
21627;DHT22;10975;47.872;12.972;2023-03-01T05:44:18;-0.10;99.90
21627;DHT22;10975;47.872;12.972;2023-03-01T05:46:45;-0.20;99.90
21627;DHT22;10975;47.872;12.972;2023-03-01T05:49:12;-0.10;99.90
21627;DHT22;10975;47.872;12.972;2023-03-01T05:51:43;-0.10;99.90
21627;DHT22;10975;47.872;12.972;2023-03-01T05:54:10;-0.10;99.90
21627;DHT22;10975;47.872;12.972;2023-03-01T05:56:36;-0.10;99.90
21627;DHT22;10975;47.872;12.972;2023-03-01T05:59:04;-0.10;99.90
21627;DHT22;10975;47.872;12.972;2023-03-01T06:01:34;-0.10;99.90
21627;DHT22;10975;47.872;12.972;2023-03-01T06:04:01;-0.10;99.90
21627;DHT22;10975;47.872;12.972;2023-03-01T06:06:28;-0.20;99.90
21627;DHT22;10975;47.872;12.972;2023-03-01T06:08:55;-0.10;99.90
21627;DHT22;10975;47.872;12.972;2023-03-01T06:11:22;-0.10;99.90
21627;DHT22;10975;47.872;12.972;2023-03-01T06:13:49;-0.10;99.90
21627;DHT22;10975;47.872;12.972;2023-03-01T06:16:15;-0.10;99.90
21627;DHT22;10975;47.872;12.972;2023-03-01T06:18:42;-0.10;99.90
21627;DHT22;10975;47.872;12.972;2023-03-01T06:21:09;0.00;99.90
21627;DHT22;10975;47.872;12.972;2023-03-01T06:23:35;0.00;99.90
21627;DHT22;10975;47.872;12.972;2023-03-01T06:26:06;0.00;99.90
21627;DHT22;10975;47.872;12.972;2023-03-01T06:28:34;0.00;99.90
21627;DHT22;10975;47.872;12.972;2023-03-01T06:31:01;0.00;99.90
21627;DHT22;10975;47.872;12.972;2023-03-01T06:33:28;0.00;99.90
21627;DHT22;10975;47.872;12.972;2023-03-01T06:35:55;0.10;99.90
21627;DHT22;10975;47.872;12.972;2023-03-01T06:38:23;0.10;99.90
21627;DHT22;10975;47.872;12.972;2023-03-01T06:40:54;0.10;99.90
21627;DHT22;10975;47.872;12.972;2023-03-01T06:43:22;0.20;99.90
21627;DHT22;10975;47.872;12.972;2023-03-01T06:45:50;0.20;99.90
21627;DHT22;10975;47.872;12.972;2023-03-01T06:48:16;0.20;99.90
21627;DHT22;10975;47.872;12.972;2023-03-01T06:50:43;0.20;99.90
21627;DHT22;10975;47.872;12.972;2023-03-01T06:53:10;0.20;99.90
21627;DHT22;10975;47.872;12.972;2023-03-01T06:55:37;0.20;99.90
21627;DHT22;10975;47.872;12.972;2023-03-01T06:58:03;0.30;99.90
21627;DHT22;10975;47.872;12.972;2023-03-01T07:00:30;0.30;99.90
21627;DHT22;10975;47.872;12.972;2023-03-01T07:03:00;0.40;99.90
21627;DHT22;10975;47.872;12.972;2023-03-01T07:05:29;0.40;99.90
21627;DHT22;10975;47.872;12.972;2023-03-01T07:07:56;0.40;99.90
21627;DHT22;10975;47.872;12.972;2023-03-01T07:10:23;0.40;99.90
21627;DHT22;10975;47.872;12.972;2023-03-01T07:12:49;0.50;99.90
21627;DHT22;10975;47.872;12.972;2023-03-01T07:15:16;0.60;99.90
21627;DHT22;10975;47.872;12.972;2023-03-01T07:17:43;0.60;99.90
21627;DHT22;10975;47.872;12.972;2023-03-01T07:20:11;0.60;99.90
21627;DHT22;10975;47.872;12.972;2023-03-01T07:22:39;0.60;99.90
21627;DHT22;10975;47.872;12.972;2023-03-01T07:25:06;0.70;99.90
21627;DHT22;10975;47.872;12.972;2023-03-01T07:27:33;0.80;99.90
21627;DHT22;10975;47.872;12.972;2023-03-01T07:30:00;0.80;99.90
21627;DHT22;10975;47.872;12.972;2023-03-01T07:32:26;1.00;99.90
21627;DHT22;10975;47.872;12.972;2023-03-01T07:34:54;1.00;99.90
21627;DHT22;10975;47.872;12.972;2023-03-01T07:37:21;1.10;99.90
21627;DHT22;10975;47.872;12.972;2023-03-01T07:39:48;1.10;99.90
21627;DHT22;10975;47.872;12.972;2023-03-01T07:42:14;1.10;99.90
21627;DHT22;10975;47.872;12.972;2023-03-01T07:44:41;1.20;99.90
21627;DHT22;10975;47.872;12.972;2023-03-01T07:47:08;1.20;99.90
21627;DHT22;10975;47.872;12.972;2023-03-01T07:49:35;1.30;99.90
21627;DHT22;10975;47.872;12.972;2023-03-01T07:52:02;1.40;99.90
21627;DHT22;10975;47.872;12.972;2023-03-01T07:54:29;1.50;99.90
21627;DHT22;10975;47.872;12.972;2023-03-01T07:56:56;1.60;99.90
21627;DHT22;10975;47.872;12.972;2023-03-01T07:59:23;1.60;99.90
21627;DHT22;10975;47.872;12.972;2023-03-01T08:01:55;1.60;99.90
21627;DHT22;10975;47.872;12.972;2023-03-01T08:04:28;1.70;99.90
21627;DHT22;10975;47.872;12.972;2023-03-01T08:06:55;1.70;99.90
21627;DHT22;10975;47.872;12.972;2023-03-01T08:09:22;1.80;99.90
21627;DHT22;10975;47.872;12.972;2023-03-01T08:11:48;1.80;99.90
21627;DHT22;10975;47.872;12.972;2023-03-01T08:14:15;1.90;99.90
21627;DHT22;10975;47.872;12.972;2023-03-01T08:16:42;1.90;99.90
21627;DHT22;10975;47.872;12.972;2023-03-01T08:19:09;2.00;99.90
21627;DHT22;10975;47.872;12.972;2023-03-01T08:21:37;2.10;99.90
21627;DHT22;10975;47.872;12.972;2023-03-01T08:24:04;2.20;99.90
21627;DHT22;10975;47.872;12.972;2023-03-01T08:26:31;2.30;99.90
21627;DHT22;10975;47.872;12.972;2023-03-01T08:28:59;2.30;99.90
21627;DHT22;10975;47.872;12.972;2023-03-01T08:31:27;2.30;99.90
21627;DHT22;10975;47.872;12.972;2023-03-01T08:33:56;2.40;99.90
21627;DHT22;10975;47.872;12.972;2023-03-01T08:36:27;2.50;99.90
21627;DHT22;10975;47.872;12.972;2023-03-01T08:38:55;2.50;99.90
21627;DHT22;10975;47.872;12.972;2023-03-01T08:41:22;2.50;99.90
21627;DHT22;10975;47.872;12.972;2023-03-01T08:43:49;2.50;99.90
21627;DHT22;10975;47.872;12.972;2023-03-01T08:46:16;2.60;99.90
21627;DHT22;10975;47.872;12.972;2023-03-01T08:48:47;2.70;99.90
21627;DHT22;10975;47.872;12.972;2023-03-01T08:51:16;2.70;99.90
21627;DHT22;10975;47.872;12.972;2023-03-01T08:53:45;2.70;99.90
21627;DHT22;10975;47.872;12.972;2023-03-01T08:56:12;2.80;99.90
21627;DHT22;10975;47.872;12.972;2023-03-01T08:58:56;2.90;99.90
21627;DHT22;10975;47.872;12.972;2023-03-01T09:01:24;3.00;99.90
21627;DHT22;10975;47.872;12.972;2023-03-01T09:03:51;3.10;99.90
21627;DHT22;10975;47.872;12.972;2023-03-01T09:06:18;3.10;99.90
21627;DHT22;10975;47.872;12.972;2023-03-01T09:08:46;3.20;99.90
21627;DHT22;10975;47.872;12.972;2023-03-01T09:11:17;3.40;99.90
21627;DHT22;10975;47.872;12.972;2023-03-01T09:13:51;3.50;99.90
21627;DHT22;10975;47.872;12.972;2023-03-01T09:16:19;3.60;99.90
21627;DHT22;10975;47.872;12.972;2023-03-01T09:18:50;3.50;99.90
21627;DHT22;10975;47.872;12.972;2023-03-01T09:21:19;3.60;99.90
21627;DHT22;10975;47.872;12.972;2023-03-01T09:24:05;3.50;99.90
21627;DHT22;10975;47.872;12.972;2023-03-01T09:26:32;3.30;99.90
21627;DHT22;10975;47.872;12.972;2023-03-01T09:28:59;3.30;99.90
21627;DHT22;10975;47.872;12.972;2023-03-01T09:31:26;3.30;99.90
21627;DHT22;10975;47.872;12.972;2023-03-01T09:33:53;3.40;99.90
21627;DHT22;10975;47.872;12.972;2023-03-01T09:55:10;3.70;99.90
21627;DHT22;10975;47.872;12.972;2023-03-01T09:57:40;3.60;99.90
21627;DHT22;10975;47.872;12.972;2023-03-01T10:02:44;3.70;99.90
21627;DHT22;10975;47.872;12.972;2023-03-01T10:10:28;4.10;99.90
21627;DHT22;10975;47.872;12.972;2023-03-01T10:19:27;4.70;99.90
21627;DHT22;10975;47.872;12.972;2023-03-01T10:32:25;3.50;99.90
21627;DHT22;10975;47.872;12.972;2023-03-01T10:35:27;3.30;99.90
21627;DHT22;10975;47.872;12.972;2023-03-01T10:37:58;3.10;99.90
21627;DHT22;10975;47.872;12.972;2023-03-01T10:40:25;3.20;99.90
21627;DHT22;10975;47.872;12.972;2023-03-01T10:42:52;3.40;99.90
21627;DHT22;10975;47.872;12.972;2023-03-01T10:50:35;3.70;99.90
21627;DHT22;10975;47.872;12.972;2023-03-01T10:53:05;3.80;99.90
21627;DHT22;10975;47.872;12.972;2023-03-01T10:55:45;3.80;99.90
21627;DHT22;10975;47.872;12.972;2023-03-01T10:58:19;4.00;99.90
21627;DHT22;10975;47.872;12.972;2023-03-01T11:00:47;4.00;99.90
21627;DHT22;10975;47.872;12.972;2023-03-01T11:03:16;3.90;99.90
21627;DHT22;10975;47.872;12.972;2023-03-01T11:06:08;3.90;99.90
21627;DHT22;10975;47.872;12.972;2023-03-01T11:08:41;3.90;99.90
21627;DHT22;10975;47.872;12.972;2023-03-01T11:13:56;3.70;99.90
21627;DHT22;10975;47.872;12.972;2023-03-01T11:16:30;3.70;99.90
21627;DHT22;10975;47.872;12.972;2023-03-01T11:19:04;3.80;99.90
21627;DHT22;10975;47.872;12.972;2023-03-01T11:21:53;3.80;99.90
21627;DHT22;10975;47.872;12.972;2023-03-01T11:24:22;3.80;99.90
21627;DHT22;10975;47.872;12.972;2023-03-01T11:26:53;3.70;99.90
21627;DHT22;10975;47.872;12.972;2023-03-01T11:29:40;3.80;99.90
21627;DHT22;10975;47.872;12.972;2023-03-01T11:32:17;3.90;99.90
21627;DHT22;10975;47.872;12.972;2023-03-01T11:42:59;4.00;99.90
21627;DHT22;10975;47.872;12.972;2023-03-01T11:45:37;4.00;99.90
21627;DHT22;10975;47.872;12.972;2023-03-01T11:48:10;3.80;99.90
21627;DHT22;10975;47.872;12.972;2023-03-01T11:50:41;3.70;99.90
21627;DHT22;10975;47.872;12.972;2023-03-01T11:53:14;3.70;99.90
21627;DHT22;10975;47.872;12.972;2023-03-01T12:04:01;3.80;99.90
21627;DHT22;10975;47.872;12.972;2023-03-01T12:17:45;4.10;99.90
21627;DHT22;10975;47.872;12.972;2023-03-01T12:21:02;4.20;99.90
21627;DHT22;10975;47.872;12.972;2023-03-01T12:23:07;4.20;99.90
21627;DHT22;10975;47.872;12.972;2023-03-01T12:25:58;4.30;99.90
21627;DHT22;10975;47.872;12.972;2023-03-01T12:36:31;4.50;99.90
21627;DHT22;10975;47.872;12.972;2023-03-01T12:44:37;4.50;99.90
21627;DHT22;10975;47.872;12.972;2023-03-01T12:50:02;4.70;99.90
21627;DHT22;10975;47.872;12.972;2023-03-01T12:55:06;4.80;99.90
21627;DHT22;10975;47.872;12.972;2023-03-01T12:57:47;4.70;99.90
21627;DHT22;10975;47.872;12.972;2023-03-01T13:00:31;4.80;99.90
21627;DHT22;10975;47.872;12.972;2023-03-01T13:03:06;4.80;99.90
21627;DHT22;10975;47.872;12.972;2023-03-01T13:10:56;4.90;99.90
21627;DHT22;10975;47.872;12.972;2023-03-01T13:13:24;4.90;99.90
21627;DHT22;10975;47.872;12.972;2023-03-01T13:15:52;4.90;99.90
21627;DHT22;10975;47.872;12.972;2023-03-01T13:20:47;5.00;99.90
21627;DHT22;10975;47.872;12.972;2023-03-01T13:31:08;5.30;99.90
21627;DHT22;10975;47.872;12.972;2023-03-01T13:36:09;5.40;99.90
21627;DHT22;10975;47.872;12.972;2023-03-01T13:41:16;5.40;99.90
21627;DHT22;10975;47.872;12.972;2023-03-01T13:43:44;5.40;99.90
21627;DHT22;10975;47.872;12.972;2023-03-01T13:48:42;5.50;99.90
21627;DHT22;10975;47.872;12.972;2023-03-01T13:51:10;5.50;99.90
21627;DHT22;10975;47.872;12.972;2023-03-01T13:53:45;5.50;99.90
21627;DHT22;10975;47.872;12.972;2023-03-01T13:56:13;5.50;99.90
21627;DHT22;10975;47.872;12.972;2023-03-01T13:58:49;5.60;99.90
21627;DHT22;10975;47.872;12.972;2023-03-01T14:01:24;5.50;99.90
21627;DHT22;10975;47.872;12.972;2023-03-01T14:03:51;5.50;99.90
21627;DHT22;10975;47.872;12.972;2023-03-01T14:06:22;5.60;99.90
21627;DHT22;10975;47.872;12.972;2023-03-01T14:08:50;5.60;99.90
21627;DHT22;10975;47.872;12.972;2023-03-01T14:16:35;5.70;99.90
21627;DHT22;10975;47.872;12.972;2023-03-01T14:21:37;5.70;99.90
21627;DHT22;10975;47.872;12.972;2023-03-01T14:24:03;5.70;99.90
21627;DHT22;10975;47.872;12.972;2023-03-01T14:26:30;5.70;99.90
21627;DHT22;10975;47.872;12.972;2023-03-01T14:28:59;5.70;99.90
21627;DHT22;10975;47.872;12.972;2023-03-01T14:33:57;5.80;99.90
21627;DHT22;10975;47.872;12.972;2023-03-01T14:36:27;5.80;99.90
21627;DHT22;10975;47.872;12.972;2023-03-01T14:38:55;5.80;99.90
21627;DHT22;10975;47.872;12.972;2023-03-01T14:41:22;5.80;99.90
21627;DHT22;10975;47.872;12.972;2023-03-01T14:44:00;5.80;99.90
21627;DHT22;10975;47.872;12.972;2023-03-01T14:46:37;5.80;99.90
21627;DHT22;10975;47.872;12.972;2023-03-01T14:51:59;5.80;99.90
21627;DHT22;10975;47.872;12.972;2023-03-01T14:54:31;5.80;99.90
21627;DHT22;10975;47.872;12.972;2023-03-01T14:57:02;5.70;99.90
21627;DHT22;10975;47.872;12.972;2023-03-01T14:59:29;5.70;99.90
21627;DHT22;10975;47.872;12.972;2023-03-01T15:01:56;5.70;99.90
21627;DHT22;10975;47.872;12.972;2023-03-01T15:04:29;5.70;99.90
21627;DHT22;10975;47.872;12.972;2023-03-01T15:06:56;5.70;99.90
21627;DHT22;10975;47.872;12.972;2023-03-01T15:09:28;5.60;99.90
21627;DHT22;10975;47.872;12.972;2023-03-01T15:11:55;5.60;99.90
21627;DHT22;10975;47.872;12.972;2023-03-01T15:14:43;5.60;99.90
21627;DHT22;10975;47.872;12.972;2023-03-01T15:17:34;5.60;99.90
21627;DHT22;10975;47.872;12.972;2023-03-01T15:20:03;5.70;99.90
21627;DHT22;10975;47.872;12.972;2023-03-01T15:22:30;5.60;99.90
21627;DHT22;10975;47.872;12.972;2023-03-01T15:24:57;5.60;99.90
21627;DHT22;10975;47.872;12.972;2023-03-01T15:27:24;5.60;99.90
21627;DHT22;10975;47.872;12.972;2023-03-01T15:29:57;5.60;99.90
21627;DHT22;10975;47.872;12.972;2023-03-01T15:32:32;5.60;99.90
21627;DHT22;10975;47.872;12.972;2023-03-01T15:35:00;5.50;99.90
21627;DHT22;10975;47.872;12.972;2023-03-01T15:40:27;5.60;99.90
21627;DHT22;10975;47.872;12.972;2023-03-01T15:43:04;5.50;99.90
21627;DHT22;10975;47.872;12.972;2023-03-01T15:45:32;5.50;99.90
21627;DHT22;10975;47.872;12.972;2023-03-01T15:48:05;5.50;99.90
21627;DHT22;10975;47.872;12.972;2023-03-01T15:50:40;5.50;99.90
21627;DHT22;10975;47.872;12.972;2023-03-01T15:53:13;5.50;99.90
21627;DHT22;10975;47.872;12.972;2023-03-01T15:55:42;5.50;99.90
21627;DHT22;10975;47.872;12.972;2023-03-01T16:00:44;5.60;99.90
21627;DHT22;10975;47.872;12.972;2023-03-01T16:03:26;5.60;99.90
21627;DHT22;10975;47.872;12.972;2023-03-01T16:05:52;5.50;99.90
21627;DHT22;10975;47.872;12.972;2023-03-01T16:08:20;5.50;99.90
21627;DHT22;10975;47.872;12.972;2023-03-01T16:10:46;5.50;99.90
21627;DHT22;10975;47.872;12.972;2023-03-01T16:16:45;5.40;99.90
21627;DHT22;10975;47.872;12.972;2023-03-01T16:19:11;5.20;99.90
21627;DHT22;10975;47.872;12.972;2023-03-01T16:21:41;5.20;99.90
21627;DHT22;10975;47.872;12.972;2023-03-01T16:24:08;5.10;99.90
21627;DHT22;10975;47.872;12.972;2023-03-01T16:26:36;5.10;99.90
21627;DHT22;10975;47.872;12.972;2023-03-01T16:29:03;5.00;99.90
21627;DHT22;10975;47.872;12.972;2023-03-01T16:31:30;4.90;99.90
21627;DHT22;10975;47.872;12.972;2023-03-01T16:33:58;4.90;99.90
21627;DHT22;10975;47.872;12.972;2023-03-01T16:36:25;4.80;99.90
21627;DHT22;10975;47.872;12.972;2023-03-01T16:38:55;4.70;99.90
21627;DHT22;10975;47.872;12.972;2023-03-01T16:41:24;4.60;99.90
21627;DHT22;10975;47.872;12.972;2023-03-01T16:43:51;4.50;99.90
21627;DHT22;10975;47.872;12.972;2023-03-01T16:46:19;4.50;99.90
21627;DHT22;10975;47.872;12.972;2023-03-01T16:48:46;4.40;99.90
21627;DHT22;10975;47.872;12.972;2023-03-01T16:51:13;4.30;99.90
21627;DHT22;10975;47.872;12.972;2023-03-01T16:53:40;4.30;99.90
21627;DHT22;10975;47.872;12.972;2023-03-01T16:56:08;4.20;99.90
21627;DHT22;10975;47.872;12.972;2023-03-01T16:58:36;4.10;99.90
21627;DHT22;10975;47.872;12.972;2023-03-01T17:01:07;4.00;99.90
21627;DHT22;10975;47.872;12.972;2023-03-01T17:03:37;4.00;99.90
21627;DHT22;10975;47.872;12.972;2023-03-01T17:06:04;3.90;99.90
21627;DHT22;10975;47.872;12.972;2023-03-01T17:08:31;3.80;99.90
21627;DHT22;10975;47.872;12.972;2023-03-01T17:11:02;3.80;99.90
21627;DHT22;10975;47.872;12.972;2023-03-01T17:13:29;3.80;99.90
21627;DHT22;10975;47.872;12.972;2023-03-01T17:15:56;3.70;99.90
21627;DHT22;10975;47.872;12.972;2023-03-01T17:18:22;3.70;99.90
21627;DHT22;10975;47.872;12.972;2023-03-01T17:20:50;3.70;99.90
21627;DHT22;10975;47.872;12.972;2023-03-01T17:23:17;3.70;99.90
21627;DHT22;10975;47.872;12.972;2023-03-01T17:25:46;3.60;99.90
21627;DHT22;10975;47.872;12.972;2023-03-01T17:28:13;3.60;99.90
21627;DHT22;10975;47.872;12.972;2023-03-01T17:30:41;3.60;99.90
21627;DHT22;10975;47.872;12.972;2023-03-01T17:33:07;3.50;99.90
21627;DHT22;10975;47.872;12.972;2023-03-01T17:35:34;3.50;99.90
21627;DHT22;10975;47.872;12.972;2023-03-01T17:38:03;3.50;99.90
21627;DHT22;10975;47.872;12.972;2023-03-01T17:40:30;3.40;99.90
21627;DHT22;10975;47.872;12.972;2023-03-01T17:42:57;3.40;99.90
21627;DHT22;10975;47.872;12.972;2023-03-01T17:45:24;3.40;99.90
21627;DHT22;10975;47.872;12.972;2023-03-01T17:47:51;3.40;99.90
21627;DHT22;10975;47.872;12.972;2023-03-01T17:50:17;3.50;99.90
21627;DHT22;10975;47.872;12.972;2023-03-01T17:52:44;3.50;99.90
21627;DHT22;10975;47.872;12.972;2023-03-01T17:55:11;3.50;99.90
21627;DHT22;10975;47.872;12.972;2023-03-01T17:57:38;3.60;99.90
21627;DHT22;10975;47.872;12.972;2023-03-01T18:00:08;3.60;99.90
21627;DHT22;10975;47.872;12.972;2023-03-01T18:02:35;3.50;99.90
21627;DHT22;10975;47.872;12.972;2023-03-01T18:05:02;3.50;99.90
21627;DHT22;10975;47.872;12.972;2023-03-01T18:07:29;3.50;99.90
21627;DHT22;10975;47.872;12.972;2023-03-01T18:09:56;3.50;99.90
21627;DHT22;10975;47.872;12.972;2023-03-01T18:12:22;3.50;99.90
21627;DHT22;10975;47.872;12.972;2023-03-01T18:14:49;3.40;99.90
21627;DHT22;10975;47.872;12.972;2023-03-01T18:17:19;3.30;99.90